createdAt,value
2023-10-11T00:00:30.225Z,13.43
2023-10-11T00:03:33.857Z,14.55
2023-10-11T00:06:37.589Z,14.75
2023-10-11T00:09:41.676Z,13.57
2023-10-11T00:12:45.199Z,13.77
2023-10-11T00:15:51.638Z,14.67
2023-10-11T00:18:57.677Z,13.73
2023-10-11T00:22:02.415Z,13.93
2023-10-11T00:25:06.120Z,12.55
2023-10-11T00:28:10.353Z,12.93
2023-10-11T00:31:19.062Z,13.37
2023-10-11T00:34:22.801Z,14.10
2023-10-11T00:37:26.567Z,13.82
2023-10-11T00:40:33.453Z,14.10
2023-10-11T00:43:43.310Z,14.33
2023-10-11T00:47:01.680Z,14.43
2023-10-11T00:50:07.052Z,14.75
2023-10-11T00:53:11.645Z,14.30
2023-10-11T00:56:16.181Z,12.60
2023-10-11T00:59:22.657Z,13.53
2023-10-11T01:02:25.609Z,13.70
2023-10-11T01:05:30.361Z,14.15
2023-10-11T01:08:40.892Z,13.70
2023-10-11T01:11:45.378Z,13.48
2023-10-11T01:15:00.635Z,13.37
2023-10-11T01:18:04.874Z,13.60
2023-10-11T01:21:14.127Z,13.75
2023-10-11T01:24:18.195Z,14.40
2023-10-11T01:27:23.651Z,14.10
2023-10-11T01:30:28.702Z,14.30
2023-10-11T01:33:31.645Z,15.23
2023-10-11T01:36:36.000Z,14.80
2023-10-11T01:39:42.076Z,15.00
2023-10-11T01:42:45.553Z,14.52
2023-10-11T01:45:48.556Z,13.70
2023-10-11T01:48:53.191Z,12.60
2023-10-11T01:51:56.280Z,13.23
2023-10-11T01:55:03.160Z,13.50
2023-10-11T01:58:09.024Z,12.30
2023-10-11T02:01:27.560Z,13.93
2023-10-11T02:04:32.303Z,13.77
2023-10-11T02:07:35.312Z,14.57
2023-10-11T02:10:39.011Z,13.73
2023-10-11T02:13:43.941Z,13.70
2023-10-11T02:16:47.231Z,14.17
2023-10-11T02:19:51.230Z,17.57
2023-10-11T02:22:57.082Z,21.98
2023-10-11T02:26:00.605Z,17.40
2023-10-11T02:29:08.183Z,15.68
2023-10-11T02:32:11.497Z,12.80
2023-10-11T02:35:15.481Z,15.13
2023-10-11T02:38:41.833Z,16.00
2023-10-11T02:41:51.960Z,15.32
2023-10-11T02:44:55.333Z,15.90
2023-10-11T02:48:04.096Z,12.97
2023-10-11T02:51:15.169Z,13.60
2023-10-11T02:54:18.877Z,15.00
2023-10-11T02:57:22.679Z,14.55
2023-10-11T03:00:25.983Z,14.87
2023-10-11T03:03:30.206Z,12.50
2023-10-11T03:06:37.027Z,14.00
2023-10-11T03:09:42.252Z,22.37
2023-10-11T03:12:45.854Z,20.88
2023-10-11T03:15:56.286Z,17.83
2023-10-11T03:19:00.965Z,17.80
2023-10-11T03:22:04.866Z,19.30
2023-10-11T03:25:14.754Z,13.90
2023-10-11T03:28:23.029Z,16.62
2023-10-11T03:31:30.662Z,15.43
2023-10-11T03:34:34.718Z,14.63
2023-10-11T03:37:41.712Z,18.40
2023-10-11T03:40:57.290Z,17.65
2023-10-11T03:44:11.214Z,16.42
2023-10-11T03:47:16.143Z,15.73
2023-10-11T03:50:26.005Z,15.13
2023-10-11T03:53:33.764Z,15.83
2023-10-11T03:56:36.935Z,16.58
2023-10-11T03:59:41.647Z,16.48
2023-10-11T04:02:44.516Z,14.98
2023-10-11T04:05:49.399Z,14.10
2023-10-11T04:08:57.558Z,14.07
2023-10-11T04:12:02.241Z,13.70
2023-10-11T04:15:19.468Z,14.18
2023-10-11T04:18:35.211Z,12.00
2023-10-11T04:21:55.756Z,13.40
2023-10-11T04:25:08.183Z,12.93
2023-10-11T04:28:13.953Z,13.25
2023-10-11T04:31:32.898Z,13.88
2023-10-11T04:34:40.119Z,13.05
2023-10-11T04:37:51.685Z,12.23
2023-10-11T04:40:54.465Z,12.80
2023-10-11T04:44:07.992Z,10.85
2023-10-11T04:47:12.217Z,11.95
2023-10-11T04:50:16.094Z,11.23
2023-10-11T04:53:19.714Z,12.30
2023-10-11T04:56:46.848Z,11.30
2023-10-11T04:59:50.365Z,15.82
2023-10-11T05:02:59.960Z,15.20
2023-10-11T05:06:11.058Z,14.10
2023-10-11T05:09:17.188Z,12.27
2023-10-11T05:12:23.619Z,13.73
2023-10-11T05:15:31.894Z,12.18
2023-10-11T05:18:39.696Z,11.60
2023-10-11T05:21:46.566Z,11.35
2023-10-11T05:25:01.536Z,11.97
2023-10-11T05:28:23.438Z,12.57
2023-10-11T05:31:36.127Z,12.25
2023-10-11T05:35:15.089Z,11.60
2023-10-11T05:38:39.629Z,11.55
2023-10-11T05:42:02.039Z,11.33
2023-10-11T05:45:24.227Z,10.40
2023-10-11T05:48:46.450Z,10.98
2023-10-11T05:51:51.971Z,11.50
2023-10-11T05:54:55.784Z,10.10
2023-10-11T05:58:05.881Z,10.60
2023-10-11T06:01:15.165Z,9.07
2023-10-11T06:04:18.579Z,10.07
2023-10-11T06:07:23.003Z,8.50
2023-10-11T06:10:31.268Z,8.32
2023-10-11T06:13:34.110Z,9.23
2023-10-11T06:16:41.118Z,8.07
2023-10-11T06:19:55.304Z,7.82
2023-10-11T06:23:03.827Z,7.47
2023-10-11T06:26:39.617Z,7.62
2023-10-11T06:29:56.029Z,7.33
2023-10-11T06:33:03.412Z,7.60
2023-10-11T06:36:16.217Z,7.82
2023-10-11T06:39:36.789Z,7.72
2023-10-11T06:42:44.095Z,7.32
2023-10-11T06:45:51.167Z,6.70
2023-10-11T06:48:57.047Z,6.30
2023-10-11T06:52:03.093Z,5.50
2023-10-11T06:55:09.804Z,6.57
2023-10-11T06:58:17.741Z,3.42
2023-10-11T07:01:22.416Z,4.60
2023-10-11T07:04:26.066Z,5.73
2023-10-11T07:07:34.398Z,3.80
2023-10-11T07:10:42.254Z,5.80
2023-10-11T07:13:57.058Z,5.32
2023-10-11T07:17:02.360Z,5.23
2023-10-11T07:20:28.967Z,5.77
2023-10-11T07:23:47.694Z,5.03
2023-10-11T07:26:51.158Z,3.78
2023-10-11T07:29:56.486Z,5.15
2023-10-11T07:33:05.741Z,4.90
2023-10-11T07:36:13.414Z,3.70
2023-10-11T07:39:18.174Z,4.05
2023-10-11T07:42:27.710Z,4.03
2023-10-11T07:45:30.991Z,5.62
2023-10-11T07:48:34.863Z,3.30
2023-10-11T07:51:42.415Z,3.37
2023-10-11T07:54:45.304Z,3.87
2023-10-11T07:57:48.977Z,3.53
2023-10-11T08:00:52.755Z,4.03
2023-10-11T08:03:56.263Z,3.33
2023-10-11T08:07:08.150Z,3.57
2023-10-11T08:10:40.841Z,3.87
2023-10-11T08:13:45.338Z,3.40
2023-10-11T08:16:51.524Z,3.72
2023-10-11T08:19:57.549Z,4.73
2023-10-11T08:23:09.814Z,3.63
2023-10-11T08:26:16.623Z,3.75
2023-10-11T08:29:33.760Z,3.65
2023-10-11T08:32:50.077Z,3.80
2023-10-11T08:35:56.768Z,3.20
2023-10-11T08:39:01.802Z,3.97
2023-10-11T08:42:11.809Z,3.47
2023-10-11T08:45:17.524Z,3.08
2023-10-11T08:48:26.967Z,3.60
2023-10-11T08:51:38.382Z,2.43
2023-10-11T08:54:42.466Z,4.30
2023-10-11T08:57:48.530Z,4.05
2023-10-11T09:00:56.487Z,3.70
2023-10-11T09:04:17.946Z,3.45
2023-10-11T09:07:38.985Z,3.60
2023-10-11T09:10:42.164Z,3.97
2023-10-11T09:13:48.143Z,3.58
2023-10-11T09:16:53.546Z,3.20
2023-10-11T09:20:01.872Z,3.55
2023-10-11T09:23:07.274Z,3.90
2023-10-11T09:26:10.796Z,3.20
2023-10-11T09:29:25.566Z,3.90
2023-10-11T09:32:35.693Z,4.07
2023-10-11T09:35:38.676Z,3.30
2023-10-11T09:38:44.661Z,3.50
2023-10-11T09:41:55.383Z,2.90
2023-10-11T09:45:00.830Z,3.35
2023-10-11T09:48:07.609Z,3.50
2023-10-11T09:51:15.788Z,3.60
2023-10-11T09:54:19.516Z,3.87
2023-10-11T09:57:35.154Z,4.07
2023-10-11T10:00:52.470Z,3.72
2023-10-11T10:03:56.117Z,3.78
2023-10-11T10:07:14.851Z,4.50
2023-10-11T10:10:27.247Z,4.03
2023-10-11T10:13:50.837Z,3.27
2023-10-11T10:17:28.574Z,3.35
2023-10-11T10:20:45.903Z,3.28
2023-10-11T10:23:53.388Z,4.57
2023-10-11T10:26:56.693Z,4.30
2023-10-11T10:30:01.743Z,3.53
2023-10-11T10:33:26.423Z,3.70
2023-10-11T10:36:32.885Z,3.58
2023-10-11T10:39:48.229Z,3.95
2023-10-11T10:43:29.673Z,3.40
2023-10-11T10:46:34.340Z,4.00
2023-10-11T10:49:45.808Z,3.75
2023-10-11T10:52:54.782Z,3.55
2023-10-11T10:55:59.648Z,3.22
2023-10-11T10:59:15.749Z,3.30
2023-10-11T11:02:20.963Z,3.43
2023-10-11T11:05:32.722Z,3.22
2023-10-11T11:08:39.053Z,3.45
2023-10-11T11:11:45.398Z,2.75
2023-10-11T11:15:09.845Z,3.20
2023-10-11T11:18:16.480Z,3.27
2023-10-11T11:21:27.352Z,3.55
2023-10-11T11:24:36.483Z,4.57
2023-10-11T11:27:44.780Z,3.75
2023-10-11T11:30:53.863Z,4.20
2023-10-11T11:34:14.641Z,4.20
2023-10-11T11:37:22.256Z,3.72
2023-10-11T11:40:27.186Z,3.85
2023-10-11T11:43:35.226Z,3.47
2023-10-11T11:46:38.843Z,3.37
2023-10-11T11:49:42.338Z,3.90
2023-10-11T11:52:46.948Z,4.15
2023-10-11T11:55:50.955Z,3.90
2023-10-11T11:59:01.736Z,4.15
2023-10-11T12:02:10.183Z,3.90
2023-10-11T12:05:14.587Z,4.10
2023-10-11T12:08:20.499Z,4.12
2023-10-11T12:11:24.371Z,2.90
2023-10-11T12:14:27.523Z,3.58
2023-10-11T12:17:30.929Z,3.80
2023-10-11T12:20:37.757Z,3.20
2023-10-11T12:23:53.229Z,3.40
2023-10-11T12:26:59.658Z,3.70
2023-10-11T12:30:09.550Z,2.55
2023-10-11T12:33:12.808Z,3.07
2023-10-11T12:36:21.872Z,3.50
2023-10-11T12:39:26.779Z,3.65
2023-10-11T12:42:30.248Z,2.92
2023-10-11T12:45:33.768Z,3.28
2023-10-11T12:48:38.690Z,3.30
2023-10-11T12:51:43.609Z,3.17
2023-10-11T12:54:46.823Z,3.45
2023-10-11T12:57:49.896Z,2.97
2023-10-11T13:00:53.313Z,3.30
2023-10-11T13:04:07.379Z,2.90
2023-10-11T13:07:15.493Z,3.73
2023-10-11T13:10:18.461Z,2.95
2023-10-11T13:13:23.015Z,2.80
2023-10-11T13:16:28.769Z,2.58
2023-10-11T13:19:32.864Z,2.90
2023-10-11T13:22:36.420Z,3.30
2023-10-11T13:25:39.614Z,2.87
2023-10-11T13:28:43.386Z,2.40
2023-10-11T13:31:47.772Z,3.20
2023-10-11T13:34:53.106Z,2.60
2023-10-11T13:37:56.655Z,3.00
2023-10-11T13:41:02.909Z,2.50
2023-10-11T13:44:06.500Z,2.72
2023-10-11T13:47:10.770Z,3.12
2023-10-11T13:50:36.950Z,2.87
2023-10-11T13:53:42.933Z,2.87
2023-10-11T13:56:45.949Z,3.05
2023-10-11T13:59:52.090Z,3.33
2023-10-11T14:03:15.779Z,3.15
2023-10-11T14:06:32.134Z,2.20
2023-10-11T14:09:35.028Z,2.50
2023-10-11T14:12:38.949Z,3.33
2023-10-11T14:15:42.690Z,2.92
2023-10-11T14:18:46.094Z,3.05
2023-10-11T14:21:49.286Z,2.70
2023-10-11T14:24:53.673Z,3.30
2023-10-11T14:27:56.429Z,3.25
2023-10-11T14:31:01.956Z,3.47
2023-10-11T14:34:05.887Z,3.37
2023-10-11T14:37:13.540Z,3.10
2023-10-11T14:40:17.440Z,2.70
2023-10-11T14:43:21.810Z,3.92
2023-10-11T14:46:27.154Z,3.40
2023-10-11T14:49:30.596Z,3.22
2023-10-11T14:52:33.462Z,2.97
2023-10-11T14:55:36.675Z,3.40
2023-10-11T14:58:39.512Z,3.25
2023-10-11T15:01:43.257Z,3.40
2023-10-11T15:04:46.210Z,3.53
2023-10-11T15:07:54.146Z,3.40
2023-10-11T15:10:57.281Z,3.40
2023-10-11T15:14:05.243Z,3.55
2023-10-11T15:17:11.617Z,3.35
2023-10-11T15:20:15.682Z,2.92
2023-10-11T15:23:20.021Z,3.20
2023-10-11T15:26:23.285Z,3.30
2023-10-11T15:29:26.219Z,3.45
2023-10-11T15:32:33.285Z,3.80
2023-10-11T15:35:36.774Z,3.03
2023-10-11T15:38:40.012Z,3.40
2023-10-11T15:41:45.326Z,3.87
2023-10-11T15:44:48.561Z,3.65
2023-10-11T15:47:51.481Z,4.03
2023-10-11T15:51:05.265Z,3.75
2023-10-11T15:54:10.958Z,3.80
2023-10-11T15:57:16.147Z,3.87
2023-10-11T16:00:21.496Z,3.28
2023-10-11T16:03:25.685Z,4.07
2023-10-11T16:06:29.701Z,3.85
2023-10-11T16:09:36.531Z,4.93
2023-10-11T16:12:43.348Z,11.20
2023-10-11T16:15:46.940Z,7.30
2023-10-11T16:18:50.104Z,4.40
2023-10-11T16:21:56.472Z,4.32
2023-10-11T16:25:00.509Z,3.67
2023-10-11T16:28:03.718Z,6.10
2023-10-11T16:31:09.355Z,5.95
2023-10-11T16:34:12.643Z,15.85
2023-10-11T16:37:15.545Z,11.50
2023-10-11T16:40:19.719Z,68.87
2023-10-11T16:43:22.647Z,26.50
2023-10-11T16:49:32.805Z,12.70
2023-10-11T16:52:35.889Z,11.77
2023-10-11T16:55:39.545Z,10.00
2023-10-11T16:58:46.042Z,10.97
2023-10-11T17:01:51.368Z,15.93
2023-10-11T17:04:55.953Z,12.60
2023-10-11T17:07:59.901Z,7.05
2023-10-11T17:11:11.427Z,8.30
2023-10-11T17:14:16.761Z,9.57
2023-10-11T17:17:21.121Z,9.43
2023-10-11T17:20:24.953Z,8.73
2023-10-11T17:23:28.831Z,8.50
2023-10-11T17:26:33.921Z,8.87
2023-10-11T17:29:37.773Z,9.33
2023-10-11T17:32:44.606Z,8.95
2023-10-11T17:35:49.092Z,7.72
2023-10-11T17:38:52.722Z,7.45
2023-10-11T17:41:59.350Z,5.87
2023-10-11T17:45:03.058Z,6.10
2023-10-11T17:48:07.625Z,5.65
2023-10-11T17:51:20.167Z,4.87
2023-10-11T17:54:24.668Z,4.45
2023-10-11T17:57:29.218Z,4.17
2023-10-11T18:00:39.360Z,3.90
2023-10-11T18:03:46.538Z,4.15
2023-10-11T18:06:55.093Z,3.87
2023-10-11T18:10:06.232Z,3.90
2023-10-11T18:13:13.011Z,3.83
2023-10-11T18:16:22.225Z,4.33
2023-10-11T18:19:28.178Z,4.00
2023-10-11T18:22:33.363Z,4.00
2023-10-11T18:25:38.786Z,3.85
2023-10-11T18:28:48.948Z,3.80
2023-10-11T18:31:56.175Z,4.53
2023-10-11T18:35:05.771Z,3.58
2023-10-11T18:38:12.087Z,4.10
2023-10-11T18:41:27.244Z,4.22
2023-10-11T18:44:34.959Z,3.90
2023-10-11T18:47:41.909Z,3.90
2023-10-11T18:50:49.754Z,4.12
2023-10-11T18:54:00.324Z,3.90
2023-10-11T18:57:08.786Z,4.82
2023-10-11T19:00:19.309Z,4.17
2023-10-11T19:03:26.921Z,3.30
2023-10-11T19:06:34.143Z,4.05
2023-10-11T19:09:41.774Z,4.12
2023-10-11T19:12:51.668Z,4.20
2023-10-11T19:16:01.459Z,4.23
2023-10-11T19:19:15.362Z,4.40
2023-10-11T19:22:18.670Z,4.20
2023-10-11T19:25:29.748Z,3.80
2023-10-11T19:28:33.414Z,3.80
2023-10-11T19:31:38.847Z,4.30
2023-10-11T19:34:44.895Z,4.70
2023-10-11T19:37:49.824Z,4.30
2023-10-11T19:41:02.452Z,4.65
2023-10-11T19:44:07.339Z,4.65
2023-10-11T19:47:10.821Z,4.47
2023-10-11T19:50:16.299Z,4.33
2023-10-11T19:53:21.156Z,5.07
2023-10-11T19:56:26.511Z,5.03
2023-10-11T19:59:31.820Z,4.43
2023-10-11T20:02:37.651Z,4.30
2023-10-11T20:05:43.014Z,5.17
2023-10-11T20:08:46.848Z,4.72
2023-10-11T20:11:51.904Z,4.40
2023-10-11T20:14:56.900Z,4.95
2023-10-11T20:18:00.675Z,4.70
2023-10-11T20:21:06.399Z,5.40
2023-10-11T20:24:11.762Z,4.85
2023-10-11T20:27:15.056Z,4.75
2023-10-11T20:30:27.953Z,4.80
2023-10-11T20:33:33.553Z,4.13
2023-10-11T20:36:38.176Z,5.50
2023-10-11T20:39:41.260Z,4.68
2023-10-11T20:42:45.009Z,4.60
2023-10-11T20:45:48.066Z,4.80
2023-10-11T20:48:51.333Z,4.83
2023-10-11T20:51:54.923Z,4.97
2023-10-11T20:54:58.721Z,4.65
2023-10-11T20:58:15.959Z,5.45
2023-10-11T21:01:19.558Z,4.85
2023-10-11T21:04:24.573Z,5.03
2023-10-11T21:07:28.993Z,4.40
2023-10-11T21:10:36.092Z,4.78
2023-10-11T21:13:39.275Z,4.75
2023-10-11T21:16:42.249Z,5.18
2023-10-11T21:19:47.040Z,4.30
2023-10-11T21:22:49.898Z,5.43
2023-10-11T21:26:07.369Z,4.00
2023-10-11T21:29:13.902Z,3.72
2023-10-11T21:32:17.554Z,4.37
2023-10-11T21:35:23.458Z,4.60
2023-10-11T21:38:26.750Z,4.40
2023-10-11T21:41:30.045Z,4.37
2023-10-11T21:44:33.691Z,4.50
2023-10-11T21:47:43.916Z,5.05
2023-10-11T21:50:49.530Z,4.50
2023-10-11T21:53:59.832Z,4.67
2023-10-11T21:57:03.029Z,4.45
2023-10-11T22:00:13.613Z,4.70
2023-10-11T22:03:21.482Z,5.35
2023-10-11T22:06:25.117Z,3.73
2023-10-11T22:09:29.421Z,4.53
2023-10-11T22:12:33.603Z,5.53
2023-10-11T22:15:37.017Z,5.10
2023-10-11T22:18:42.920Z,4.50
2023-10-11T22:21:47.501Z,4.37
2023-10-11T22:24:51.343Z,5.10
2023-10-11T22:28:01.290Z,4.62
2023-10-11T22:31:04.226Z,4.72
2023-10-11T22:34:08.788Z,5.30
2023-10-11T22:37:30.148Z,5.20
2023-10-11T22:40:35.152Z,3.93
2023-10-11T22:43:37.934Z,5.12
2023-10-11T22:46:43.479Z,4.68
2023-10-11T22:49:47.128Z,4.68
2023-10-11T22:52:51.046Z,4.20
2023-10-11T22:56:00.042Z,4.13
2023-10-11T22:59:07.431Z,4.62
2023-10-11T23:02:11.978Z,4.80
2023-10-11T23:05:16.180Z,5.68
2023-10-11T23:08:19.156Z,4.50
2023-10-11T23:11:23.734Z,3.93
2023-10-11T23:14:27.023Z,4.80
2023-10-11T23:17:31.068Z,4.30
2023-10-11T23:20:40.447Z,5.15
2023-10-11T23:23:43.808Z,4.53
2023-10-11T23:26:54.730Z,4.87
2023-10-11T23:30:01.456Z,4.28
2023-10-11T23:33:10.479Z,4.30
2023-10-11T23:36:13.626Z,4.60
2023-10-11T23:39:16.510Z,4.70
2023-10-11T23:42:23.128Z,4.10
2023-10-11T23:45:26.070Z,5.05
2023-10-11T23:48:34.631Z,4.53
2023-10-11T23:51:43.431Z,4.20
2023-10-11T23:54:50.620Z,2.60
2023-10-11T23:57:54.879Z,4.17
